createdAt,value
2018-09-25T00:01:34.607Z,6.99
2018-09-25T00:04:08.937Z,6.94
2018-09-25T00:06:43.242Z,6.90
2018-09-25T00:09:17.736Z,6.78
2018-09-25T00:11:52.551Z,6.81
2018-09-25T00:14:27.056Z,6.78
2018-09-25T00:17:01.495Z,6.72
2018-09-25T00:19:35.772Z,6.76
2018-09-25T00:22:10.022Z,6.67
2018-09-25T00:24:44.430Z,6.74
2018-09-25T00:27:18.765Z,6.75
2018-09-25T00:29:53.266Z,6.70
2018-09-25T00:32:27.568Z,6.67
2018-09-25T00:35:01.937Z,6.69
2018-09-25T00:37:36.369Z,6.68
2018-09-25T00:40:10.633Z,6.68
2018-09-25T00:42:45.151Z,6.68
2018-09-25T00:45:19.492Z,6.52
2018-09-25T00:47:53.867Z,6.62
2018-09-25T00:50:28.357Z,6.59
2018-09-25T00:53:02.663Z,6.55
2018-09-25T00:55:37.093Z,6.58
2018-09-25T00:58:11.477Z,6.61
2018-09-25T01:00:45.835Z,6.58
2018-09-25T01:03:20.347Z,6.45
2018-09-25T01:05:54.777Z,6.43
2018-09-25T01:08:29.298Z,6.35
2018-09-25T01:11:03.967Z,6.29
2018-09-25T01:13:38.438Z,6.43
2018-09-25T01:16:12.799Z,6.51
2018-09-25T01:18:47.289Z,6.43
2018-09-25T01:21:21.614Z,6.39
2018-09-25T01:23:55.944Z,6.40
2018-09-25T01:26:30.330Z,6.42
2018-09-25T01:29:04.718Z,6.47
2018-09-25T01:31:39.104Z,6.37
2018-09-25T01:34:13.577Z,6.39
2018-09-25T01:36:48.027Z,6.31
2018-09-25T01:39:22.452Z,6.42
2018-09-25T01:41:56.900Z,6.32
2018-09-25T01:44:31.308Z,6.34
2018-09-25T01:47:05.782Z,6.17
2018-09-25T01:49:40.361Z,6.22
2018-09-25T01:52:14.788Z,6.13
2018-09-25T01:54:49.226Z,6.15
2018-09-25T01:57:23.712Z,6.09
2018-09-25T01:59:58.112Z,6.06
2018-09-25T02:02:32.368Z,6.11
2018-09-25T02:05:06.822Z,6.12
2018-09-25T02:07:41.197Z,6.07
2018-09-25T02:10:15.584Z,6.08
2018-09-25T02:12:49.934Z,6.06
2018-09-25T02:15:24.354Z,6.02
2018-09-25T02:17:58.700Z,6.00
2018-09-25T02:20:33.306Z,5.97
2018-09-25T02:23:07.698Z,6.00
2018-09-25T02:25:42.008Z,6.03
2018-09-25T02:28:16.299Z,6.01
2018-09-25T02:30:50.788Z,5.98
2018-09-25T02:33:25.066Z,6.08
2018-09-25T02:35:59.422Z,6.06
2018-09-25T02:38:33.885Z,6.06
2018-09-25T02:41:08.264Z,6.04
2018-09-25T02:43:42.726Z,6.06
2018-09-25T02:46:17.118Z,6.01
2018-09-25T02:48:51.496Z,5.96
2018-09-25T02:51:26.017Z,5.75
2018-09-25T02:54:00.463Z,5.77
2018-09-25T02:56:34.892Z,5.88
2018-09-25T02:59:09.132Z,5.77
2018-09-25T03:01:43.544Z,5.77
2018-09-25T03:04:18.057Z,5.84
2018-09-25T03:06:52.477Z,5.84
2018-09-25T03:09:26.829Z,5.84
2018-09-25T03:12:01.208Z,5.65
2018-09-25T03:14:35.574Z,5.69
2018-09-25T03:17:09.876Z,5.55
2018-09-25T03:19:44.329Z,5.55
2018-09-25T03:22:18.953Z,5.57
2018-09-25T03:24:53.277Z,5.58
2018-09-25T03:27:27.858Z,5.50
2018-09-25T03:30:02.099Z,5.49
2018-09-25T03:32:36.374Z,5.42
2018-09-25T03:35:10.941Z,5.42
2018-09-25T03:37:45.446Z,5.43
2018-09-25T03:40:19.824Z,5.55
2018-09-25T03:42:54.187Z,5.42
2018-09-25T03:45:28.497Z,5.34
2018-09-25T03:48:02.888Z,5.24
2018-09-25T03:50:37.232Z,5.30
2018-09-25T03:53:11.614Z,5.27
2018-09-25T03:55:45.947Z,5.28
2018-09-25T03:58:20.381Z,5.27
2018-09-25T04:00:54.836Z,5.43
2018-09-25T04:03:29.221Z,5.52
2018-09-25T04:06:03.562Z,5.39
2018-09-25T04:08:37.870Z,5.35
2018-09-25T04:11:12.568Z,5.29
2018-09-25T04:13:46.858Z,5.25
2018-09-25T04:16:21.239Z,5.28
2018-09-25T04:18:55.505Z,5.25
2018-09-25T04:21:29.849Z,5.32
2018-09-25T04:26:51.410Z,5.24
2018-09-25T04:29:25.739Z,5.41
2018-09-25T04:32:00.068Z,5.32
2018-09-25T04:34:34.542Z,5.22
2018-09-25T04:37:08.938Z,5.13
2018-09-25T04:39:43.238Z,5.06
2018-09-25T04:42:17.590Z,5.17
2018-09-25T04:44:52.128Z,5.27
2018-09-25T04:47:26.534Z,5.18
2018-09-25T04:50:00.823Z,5.24
2018-09-25T04:52:35.285Z,5.27
2018-09-25T04:55:09.628Z,5.26
2018-09-25T04:57:44.062Z,5.33
2018-09-25T05:00:18.601Z,5.30
2018-09-25T05:02:53.057Z,5.26
2018-09-25T05:05:27.548Z,5.44
2018-09-25T05:08:01.937Z,5.47
2018-09-25T05:10:36.322Z,5.39
2018-09-25T05:13:18.184Z,5.44
2018-09-25T05:15:52.545Z,5.42
2018-09-25T05:18:27.605Z,5.51
2018-09-25T05:21:02.137Z,5.59
2018-09-25T05:23:36.647Z,5.65
2018-09-25T05:26:10.940Z,5.69
2018-09-25T05:28:45.370Z,5.68
2018-09-25T05:31:19.686Z,5.67
2018-09-25T05:33:54.120Z,5.68
2018-09-25T05:36:28.521Z,5.86
2018-09-25T05:39:02.961Z,6.07
2018-09-25T05:41:37.419Z,6.11
2018-09-25T05:44:11.767Z,6.19
2018-09-25T05:46:46.137Z,6.29
2018-09-25T05:49:20.612Z,6.47
2018-09-25T05:51:55.018Z,7.08
2018-09-25T05:54:29.344Z,8.18
2018-09-25T05:57:03.822Z,8.71
2018-09-25T05:59:38.121Z,9.18
2018-09-25T06:02:12.507Z,9.70
2018-09-25T06:04:46.865Z,10.51
2018-09-25T06:07:21.234Z,10.91
2018-09-25T06:09:55.486Z,11.14
2018-09-25T06:12:29.818Z,11.05
2018-09-25T06:15:04.328Z,11.19
2018-09-25T06:17:38.658Z,11.83
2018-09-25T06:20:12.977Z,12.54
2018-09-25T06:22:47.468Z,11.94
2018-09-25T06:25:21.741Z,11.18
2018-09-25T06:27:56.230Z,11.36
2018-09-25T06:30:30.549Z,11.89
2018-09-25T06:33:05.005Z,12.00
2018-09-25T06:35:39.398Z,12.43
2018-09-25T06:38:13.766Z,13.04
2018-09-25T06:40:48.192Z,12.66
2018-09-25T06:43:22.564Z,12.96
2018-09-25T06:45:56.985Z,12.47
2018-09-25T06:48:31.519Z,13.00
2018-09-25T06:51:05.781Z,13.01
2018-09-25T06:53:40.241Z,13.34
2018-09-25T06:56:14.660Z,14.06
2018-09-25T06:58:48.959Z,13.54
2018-09-25T07:01:23.530Z,13.38
2018-09-25T07:03:57.966Z,12.44
2018-09-25T07:06:32.425Z,12.07
2018-09-25T07:09:06.694Z,12.48
2018-09-25T07:11:41.140Z,12.75
2018-09-25T07:14:15.380Z,12.86
2018-09-25T07:16:49.694Z,12.75
2018-09-25T07:19:24.000Z,13.03
2018-09-25T07:21:58.457Z,13.64
2018-09-25T07:24:32.812Z,13.50
2018-09-25T07:27:07.228Z,12.92
2018-09-25T07:29:41.527Z,12.03
2018-09-25T07:32:15.768Z,11.63
2018-09-25T07:34:50.210Z,11.73
2018-09-25T07:37:24.463Z,11.74
2018-09-25T07:39:58.790Z,11.31
2018-09-25T07:42:33.205Z,11.30
2018-09-25T07:45:07.451Z,11.57
2018-09-25T07:47:41.733Z,12.07
2018-09-25T07:50:16.088Z,12.48
2018-09-25T07:52:50.471Z,12.98
2018-09-25T07:55:24.955Z,13.71
2018-09-25T07:57:59.240Z,13.86
2018-09-25T08:00:34.145Z,14.23
2018-09-25T08:03:08.638Z,14.44
2018-09-25T08:05:42.988Z,13.71
2018-09-25T08:08:17.494Z,12.97
2018-09-25T08:10:51.879Z,13.28
2018-09-25T08:13:26.294Z,12.99
2018-09-25T08:16:00.569Z,12.77
2018-09-25T08:18:35.193Z,12.46
2018-09-25T08:21:09.554Z,12.19
2018-09-25T08:23:43.851Z,12.42
2018-09-25T08:26:18.287Z,12.24
2018-09-25T08:28:52.735Z,12.19
2018-09-25T08:31:26.988Z,12.02
2018-09-25T08:34:01.469Z,12.11
2018-09-25T08:36:35.729Z,11.94
2018-09-25T08:39:14.014Z,11.55
2018-09-25T08:41:48.760Z,12.21
2018-09-25T08:44:23.036Z,13.27
2018-09-25T08:46:57.438Z,13.40
2018-09-25T08:49:31.748Z,13.31
2018-09-25T08:52:06.093Z,14.17
2018-09-25T08:54:40.610Z,13.81
2018-09-25T08:57:15.028Z,13.84
2018-09-25T08:59:49.547Z,13.59
2018-09-25T09:02:23.980Z,13.70
2018-09-25T09:04:58.427Z,13.93
2018-09-25T09:07:32.900Z,13.90
2018-09-25T09:10:07.294Z,13.41
2018-09-25T09:12:41.716Z,12.84
2018-09-25T09:15:16.048Z,12.76
2018-09-25T09:17:50.545Z,13.21
2018-09-25T09:20:24.813Z,13.85
2018-09-25T09:22:59.116Z,14.09
2018-09-25T09:25:33.685Z,14.30
2018-09-25T09:28:09.517Z,15.12
2018-09-25T09:30:43.935Z,15.08
2018-09-25T09:33:18.240Z,15.74
2018-09-25T09:35:52.712Z,16.35
2018-09-25T09:38:27.002Z,15.15
2018-09-25T09:41:01.604Z,14.55
2018-09-25T09:43:36.112Z,14.73
2018-09-25T09:46:10.348Z,14.30
2018-09-25T09:48:44.646Z,13.90
2018-09-25T09:51:18.979Z,14.53
2018-09-25T09:53:53.262Z,15.95
2018-09-25T09:56:27.578Z,16.87
2018-09-25T09:59:01.906Z,16.00
2018-09-25T10:01:36.175Z,15.11
2018-09-25T10:04:10.623Z,14.39
2018-09-25T10:06:45.117Z,14.08
2018-09-25T10:09:19.554Z,14.12
2018-09-25T10:11:53.920Z,14.74
2018-09-25T10:14:28.288Z,14.86
2018-09-25T10:17:02.600Z,14.59
2018-09-25T10:19:37.044Z,15.76
2018-09-25T10:22:11.497Z,16.72
2018-09-25T10:24:45.812Z,16.22
2018-09-25T10:27:20.206Z,15.21
2018-09-25T10:29:54.562Z,15.17
2018-09-25T10:32:29.975Z,16.05
2018-09-25T10:35:05.056Z,16.74
2018-09-25T10:37:39.488Z,15.97
2018-09-25T10:40:13.805Z,15.19
2018-09-25T10:42:48.112Z,14.58
2018-09-25T10:45:22.588Z,14.15
2018-09-25T10:47:56.893Z,13.81
2018-09-25T10:50:31.344Z,13.95
2018-09-25T10:53:05.818Z,13.79
2018-09-25T10:55:40.141Z,14.03
2018-09-25T10:58:14.484Z,15.45
2018-09-25T11:00:48.930Z,16.07
2018-09-25T11:03:23.237Z,15.29
2018-09-25T11:05:57.525Z,14.65
2018-09-25T11:08:31.793Z,13.79
2018-09-25T11:11:06.232Z,13.75
2018-09-25T11:13:40.537Z,15.17
2018-09-25T11:16:14.889Z,16.64
2018-09-25T11:18:49.295Z,16.87
2018-09-25T11:21:23.707Z,16.58
2018-09-25T11:23:58.112Z,15.22
2018-09-25T11:26:32.498Z,14.63
2018-09-25T11:29:06.870Z,14.80
2018-09-25T11:31:41.272Z,15.77
2018-09-25T11:34:15.700Z,17.27
2018-09-25T11:36:51.584Z,18.40
2018-09-25T11:39:27.212Z,17.92
2018-09-25T11:42:01.667Z,16.90
2018-09-25T11:44:36.087Z,16.01
2018-09-25T11:47:10.537Z,15.74
2018-09-25T11:49:44.981Z,16.87
2018-09-25T11:52:19.394Z,16.76
2018-09-25T11:54:53.766Z,16.23
2018-09-25T11:57:28.085Z,15.85
2018-09-25T12:00:02.539Z,15.49
2018-09-25T12:02:38.479Z,15.14
2018-09-25T12:05:13.426Z,15.79
2018-09-25T12:07:47.920Z,16.89
2018-09-25T12:10:22.248Z,17.58
2018-09-25T12:12:56.535Z,18.65
2018-09-25T12:15:30.861Z,18.72
2018-09-25T12:18:05.299Z,18.84
2018-09-25T12:20:39.753Z,18.82
2018-09-25T12:23:14.290Z,18.34
2018-09-25T12:25:48.796Z,18.73
2018-09-25T12:28:23.370Z,18.52
2018-09-25T12:30:57.794Z,19.01
2018-09-25T12:33:32.112Z,18.14
2018-09-25T12:36:07.701Z,17.06
2018-09-25T12:38:42.168Z,16.44
2018-09-25T12:41:16.481Z,16.67
2018-09-25T12:43:50.963Z,17.86
2018-09-25T12:46:25.392Z,18.75
2018-09-25T12:48:59.864Z,19.19
2018-09-25T12:51:34.211Z,20.10
2018-09-25T12:54:08.515Z,18.98
2018-09-25T12:56:42.841Z,18.26
2018-09-25T12:59:17.370Z,18.28
2018-09-25T13:01:51.823Z,19.06
2018-09-25T13:04:26.204Z,19.60
2018-09-25T13:07:00.792Z,19.75
2018-09-25T13:09:36.149Z,20.18
2018-09-25T13:12:10.426Z,20.59
2018-09-25T13:14:44.850Z,20.65
2018-09-25T13:17:19.337Z,20.64
2018-09-25T13:19:53.742Z,19.23
2018-09-25T13:22:28.376Z,18.11
2018-09-25T13:25:03.396Z,17.01
2018-09-25T13:27:37.732Z,16.12
2018-09-25T13:30:12.153Z,15.39
2018-09-25T13:32:46.604Z,15.03
2018-09-25T13:35:20.899Z,15.66
2018-09-25T13:37:55.133Z,16.12
2018-09-25T13:40:29.572Z,17.12
2018-09-25T13:43:04.027Z,17.65
2018-09-25T13:45:38.450Z,17.99
2018-09-25T13:48:12.771Z,18.26
2018-09-25T13:50:47.089Z,18.88
2018-09-25T13:53:21.578Z,19.30
2018-09-25T13:55:56.093Z,18.97
2018-09-25T13:58:30.378Z,18.75
2018-09-25T14:01:04.749Z,18.74
2018-09-25T14:03:39.214Z,18.88
2018-09-25T14:06:13.602Z,19.94
2018-09-25T14:08:47.951Z,19.39
2018-09-25T14:11:22.255Z,19.56
2018-09-25T14:13:56.880Z,18.87
2018-09-25T14:16:31.132Z,18.94
2018-09-25T14:19:05.443Z,18.52
2018-09-25T14:21:40.038Z,18.67
2018-09-25T14:24:14.372Z,19.71
2018-09-25T14:26:48.835Z,19.14
2018-09-25T14:29:23.745Z,18.66
2018-09-25T14:31:58.380Z,19.04
2018-09-25T14:34:32.650Z,19.29
2018-09-25T14:37:08.253Z,18.70
2018-09-25T14:39:42.803Z,19.14
2018-09-25T14:42:17.178Z,18.47
2018-09-25T14:44:51.609Z,18.65
2018-09-25T14:47:25.940Z,18.44
2018-09-25T14:50:00.389Z,18.39
2018-09-25T14:52:34.706Z,18.31
2018-09-25T14:55:09.191Z,18.41
2018-09-25T14:57:43.523Z,18.41
2018-09-25T15:00:18.019Z,18.78
2018-09-25T15:02:52.345Z,18.58
2018-09-25T15:05:26.671Z,18.37
2018-09-25T15:08:00.982Z,18.30
2018-09-25T15:10:35.281Z,17.97
2018-09-25T15:13:09.512Z,17.47
2018-09-25T15:15:43.830Z,17.41
2018-09-25T15:18:18.406Z,17.67
2018-09-25T15:20:52.832Z,17.56
2018-09-25T15:23:27.221Z,17.64
2018-09-25T15:26:02.238Z,18.20
2018-09-25T15:28:37.724Z,18.18
2018-09-25T15:31:12.466Z,17.82
2018-09-25T15:33:46.876Z,17.86
2018-09-25T15:36:21.137Z,17.70
2018-09-25T15:38:55.547Z,17.30
2018-09-25T15:41:30.177Z,16.86
2018-09-25T15:44:04.497Z,16.53
2018-09-25T15:46:38.924Z,16.22
2018-09-25T15:49:13.618Z,16.54
2018-09-25T15:51:48.098Z,16.20
2018-09-25T15:54:23.627Z,15.61
2018-09-25T15:56:57.962Z,15.57
2018-09-25T15:59:32.364Z,15.21
2018-09-25T16:02:06.757Z,15.17
2018-09-25T16:04:41.246Z,15.17
2018-09-25T16:07:15.668Z,15.03
2018-09-25T16:09:49.928Z,14.63
2018-09-25T16:12:24.349Z,14.55
2018-09-25T16:14:58.990Z,14.26
2018-09-25T16:17:36.328Z,14.06
2018-09-25T16:20:10.770Z,13.96
2018-09-25T16:22:45.132Z,13.71
2018-09-25T16:25:19.626Z,13.50
2018-09-25T16:27:54.125Z,13.31
2018-09-25T16:30:28.580Z,13.15
2018-09-25T16:33:02.948Z,13.09
2018-09-25T16:35:38.560Z,12.91
2018-09-25T16:38:12.937Z,12.75
2018-09-25T16:40:47.338Z,12.68
2018-09-25T16:43:21.805Z,12.43
2018-09-25T16:45:56.175Z,12.32
2018-09-25T16:48:30.582Z,12.18
2018-09-25T16:51:05.088Z,12.06
2018-09-25T16:53:39.284Z,11.96
2018-09-25T16:56:13.910Z,11.81
2018-09-25T16:58:48.285Z,11.64
2018-09-25T17:01:22.740Z,11.52
2018-09-25T17:03:57.226Z,11.39
2018-09-25T17:06:31.638Z,11.22
2018-09-25T17:09:05.968Z,11.10
2018-09-25T17:11:40.446Z,10.95
2018-09-25T17:14:14.853Z,10.84
2018-09-25T17:16:49.246Z,10.75
2018-09-25T17:19:23.504Z,10.66
2018-09-25T17:21:57.821Z,10.57
2018-09-25T17:24:32.294Z,10.43
2018-09-25T17:27:06.739Z,10.44
2018-09-25T17:29:41.126Z,10.24
2018-09-25T17:32:15.502Z,10.11
2018-09-25T17:34:49.811Z,10.06
2018-09-25T17:37:24.140Z,9.92
2018-09-25T17:39:58.433Z,9.88
2018-09-25T17:42:32.847Z,9.77
2018-09-25T17:45:07.235Z,9.64
2018-09-25T17:47:41.681Z,9.49
2018-09-25T17:50:16.069Z,9.35
2018-09-25T17:52:50.546Z,9.33
2018-09-25T17:55:24.927Z,9.25
2018-09-25T17:57:59.358Z,9.07
2018-09-25T18:00:33.701Z,8.97
2018-09-25T18:03:08.886Z,9.26
2018-09-25T18:05:43.276Z,9.15
2018-09-25T18:08:17.753Z,9.16
2018-09-25T18:10:52.144Z,8.99
2018-09-25T18:13:26.456Z,8.89
2018-09-25T18:16:00.811Z,8.86
2018-09-25T18:18:35.457Z,8.71
2018-09-25T18:21:09.875Z,8.61
2018-09-25T18:23:44.328Z,8.55
2018-09-25T18:26:18.729Z,8.44
2018-09-25T18:28:53.303Z,8.42
2018-09-25T18:31:27.767Z,8.42
2018-09-25T18:34:02.087Z,8.35
2018-09-25T18:36:36.445Z,8.22
2018-09-25T18:39:12.473Z,8.17
2018-09-25T18:41:46.932Z,8.04
2018-09-25T18:44:21.302Z,8.01
2018-09-25T18:46:55.708Z,7.89
2018-09-25T18:49:30.211Z,7.95
2018-09-25T18:52:04.442Z,7.76
2018-09-25T18:54:39.378Z,7.69
2018-09-25T18:57:13.762Z,7.58
2018-09-25T18:59:48.142Z,7.47
2018-09-25T19:02:22.630Z,7.50
2018-09-25T19:04:57.068Z,7.48
2018-09-25T19:07:31.584Z,7.50
2018-09-25T19:10:05.856Z,7.48
2018-09-25T19:12:40.421Z,7.48
2018-09-25T19:15:14.937Z,7.40
2018-09-25T19:17:49.459Z,7.43
2018-09-25T19:20:23.839Z,7.35
2018-09-25T19:22:58.253Z,7.33
2018-09-25T19:25:32.518Z,7.27
2018-09-25T19:28:06.869Z,7.24
2018-09-25T19:30:41.174Z,7.20
2018-09-25T19:33:15.528Z,7.19
2018-09-25T19:35:50.091Z,7.20
2018-09-25T19:38:24.602Z,7.17
2018-09-25T19:40:58.909Z,7.07
2018-09-25T19:43:33.287Z,7.00
2018-09-25T19:46:07.854Z,6.91
2018-09-25T19:48:42.561Z,6.91
2018-09-25T19:51:16.851Z,6.84
2018-09-25T19:53:51.182Z,6.83
2018-09-25T19:56:25.628Z,6.84
2018-09-25T19:59:03.932Z,6.80
2018-09-25T20:01:38.337Z,6.68
2018-09-25T20:04:12.681Z,6.71
2018-09-25T20:06:47.091Z,6.76
2018-09-25T20:09:21.386Z,6.76
2018-09-25T20:11:55.867Z,6.79
2018-09-25T20:14:30.385Z,6.71
2018-09-25T20:17:04.817Z,6.61
2018-09-25T20:19:39.233Z,6.53
2018-09-25T20:22:13.651Z,6.47
2018-09-25T20:24:47.945Z,6.48
2018-09-25T20:27:22.349Z,6.52
2018-09-25T20:29:56.610Z,6.62
2018-09-25T20:32:30.918Z,6.69
2018-09-25T20:35:05.552Z,6.63
2018-09-25T20:37:40.060Z,6.51
2018-09-25T20:40:15.881Z,6.48
2018-09-25T20:42:50.289Z,6.42
2018-09-25T20:45:24.752Z,6.42
2018-09-25T20:47:59.035Z,6.41
2018-09-25T20:50:33.489Z,6.48
2018-09-25T20:53:07.848Z,6.45
2018-09-25T20:55:42.327Z,6.40
2018-09-25T20:58:16.745Z,6.43
2018-09-25T21:00:50.971Z,6.41
2018-09-25T21:03:25.276Z,6.32
2018-09-25T21:05:59.706Z,6.28
2018-09-25T21:08:34.102Z,6.25
2018-09-25T21:11:08.595Z,6.18
2018-09-25T21:13:42.837Z,6.24
2018-09-25T21:16:17.126Z,6.24
2018-09-25T21:18:51.443Z,6.19
2018-09-25T21:21:26.202Z,6.19
2018-09-25T21:24:00.571Z,6.25
2018-09-25T21:26:34.825Z,6.21
2018-09-25T21:29:09.322Z,6.13
2018-09-25T21:31:43.930Z,6.16
2018-09-25T21:34:18.242Z,6.12
2018-09-25T21:36:52.520Z,6.04
2018-09-25T21:39:27.183Z,6.04
2018-09-25T21:42:01.684Z,6.03
2018-09-25T21:44:35.981Z,6.04
2018-09-25T21:47:10.357Z,6.03
2018-09-25T21:49:44.825Z,5.91
2018-09-25T21:52:19.108Z,5.89
2018-09-25T21:54:53.516Z,5.82
2018-09-25T21:57:28.201Z,5.80
2018-09-25T22:00:02.633Z,5.77
2018-09-25T22:02:37.091Z,5.74
2018-09-25T22:05:11.448Z,5.70
2018-09-25T22:07:45.867Z,5.61
2018-09-25T22:10:20.289Z,5.59
2018-09-25T22:12:54.758Z,5.62
2018-09-25T22:15:29.016Z,5.58
2018-09-25T22:18:03.393Z,5.60
2018-09-25T22:20:37.824Z,5.60
2018-09-25T22:23:12.549Z,5.58
2018-09-25T22:25:47.007Z,5.55
2018-09-25T22:28:21.390Z,5.44
2018-09-25T22:30:55.700Z,5.40
2018-09-25T22:33:29.962Z,5.37
2018-09-25T22:36:04.373Z,5.36
2018-09-25T22:38:38.782Z,5.29
2018-09-25T22:41:13.149Z,5.34
2018-09-25T22:43:47.600Z,5.32
2018-09-25T22:46:22.027Z,5.31
2018-09-25T22:48:56.493Z,5.23
2018-09-25T22:51:31.007Z,5.30
2018-09-25T22:54:05.388Z,5.26
2018-09-25T22:56:39.913Z,5.17
2018-09-25T22:59:14.274Z,5.22
2018-09-25T23:01:48.632Z,5.23
2018-09-25T23:04:23.012Z,5.23
2018-09-25T23:06:57.314Z,5.22
2018-09-25T23:09:31.733Z,5.24
2018-09-25T23:12:06.041Z,5.13
2018-09-25T23:14:40.388Z,5.00
2018-09-25T23:17:14.814Z,4.97
2018-09-25T23:19:49.544Z,4.95
2018-09-25T23:22:23.805Z,4.93
2018-09-25T23:24:58.203Z,4.89
2018-09-25T23:27:32.619Z,4.85
2018-09-25T23:30:11.536Z,4.91
2018-09-25T23:32:45.845Z,4.81
2018-09-25T23:35:20.321Z,4.83
2018-09-25T23:37:54.623Z,4.76
2018-09-25T23:40:30.790Z,4.76
2018-09-25T23:43:05.121Z,4.80
2018-09-25T23:45:41.805Z,4.71
2018-09-25T23:48:14.953Z,4.78
2018-09-25T23:50:48.640Z,4.75
2018-09-25T23:53:22.940Z,4.71
2018-09-25T23:55:57.087Z,4.66
2018-09-25T23:58:47.607Z,4.60
